createdAt,value
2023-01-11T00:02:20.512Z,78.22
2023-01-11T00:04:47.725Z,78.24
2023-01-11T00:07:14.107Z,78.51
2023-01-11T00:09:40.466Z,78.63
2023-01-11T00:12:08.212Z,78.48
2023-01-11T00:14:34.592Z,78.27
2023-01-11T00:17:01.079Z,78.60
2023-01-11T00:19:27.423Z,78.48
2023-01-11T00:21:53.833Z,78.58
2023-01-11T00:24:20.249Z,78.64
2023-01-11T00:26:46.737Z,78.78
2023-01-11T00:29:13.342Z,78.79
2023-01-11T00:31:39.714Z,78.48
2023-01-11T00:34:06.223Z,78.79
2023-01-11T00:36:32.668Z,78.35
2023-01-11T00:38:59.002Z,78.72
2023-01-11T00:41:44.116Z,78.84
2023-01-11T00:44:29.651Z,78.62
2023-01-11T00:47:14.950Z,78.80
2023-01-11T00:49:41.592Z,78.88
2023-01-11T00:52:11.434Z,79.29
2023-01-11T00:54:38.960Z,79.18
2023-01-11T00:57:08.959Z,79.26
2023-01-11T00:59:36.677Z,79.35
2023-01-11T01:02:03.562Z,78.87
2023-01-11T01:04:29.935Z,79.30
2023-01-11T01:06:56.370Z,79.34
2023-01-11T01:09:22.882Z,79.76
2023-01-11T01:11:49.560Z,79.72
2023-01-11T01:14:33.042Z,79.84
2023-01-11T01:17:02.294Z,79.79
2023-01-11T01:19:30.619Z,79.71
2023-01-11T01:21:58.615Z,79.72
2023-01-11T01:24:25.948Z,79.71
2023-01-11T01:26:52.611Z,79.69
2023-01-11T01:29:19.198Z,79.54
2023-01-11T01:31:45.645Z,79.65
2023-01-11T01:34:12.353Z,79.49
2023-01-11T01:36:38.979Z,79.14
2023-01-11T01:39:06.927Z,79.24
2023-01-11T01:41:34.712Z,79.33
2023-01-11T01:44:04.187Z,79.35
2023-01-11T01:46:33.101Z,79.36
2023-01-11T01:49:13.872Z,79.17
2023-01-11T01:51:47.669Z,79.38
2023-01-11T01:54:19.966Z,79.38
2023-01-11T01:56:53.674Z,79.31
2023-01-11T01:59:22.179Z,79.48
2023-01-11T02:01:49.799Z,79.23
2023-01-11T02:04:24.540Z,79.53
2023-01-11T02:06:54.985Z,79.34
2023-01-11T02:09:29.504Z,79.26
2023-01-11T02:11:57.383Z,79.64
2023-01-11T02:14:24.698Z,79.40
2023-01-11T02:16:51.200Z,79.30
2023-01-11T02:19:27.810Z,79.01
2023-01-11T02:22:14.459Z,79.13
2023-01-11T02:25:12.695Z,79.15
2023-01-11T02:27:54.300Z,78.97
2023-01-11T02:30:30.178Z,78.63
2023-01-11T02:33:25.643Z,78.64
2023-01-11T02:36:15.349Z,78.50
2023-01-11T02:38:47.302Z,78.22
2023-01-11T02:41:51.917Z,78.27
2023-01-11T02:44:42.542Z,78.02
2023-01-11T02:47:17.772Z,77.92
2023-01-11T02:50:01.420Z,77.89
2023-01-11T02:52:42.096Z,78.05
2023-01-11T02:55:12.427Z,78.02
2023-01-11T02:57:42.685Z,77.86
2023-01-11T03:00:13.011Z,77.52
2023-01-11T03:02:39.569Z,77.78
2023-01-11T03:05:12.403Z,77.58
2023-01-11T03:07:53.978Z,77.46
2023-01-11T03:10:49.863Z,77.29
2023-01-11T03:13:33.824Z,77.50
2023-01-11T03:16:27.250Z,77.46
2023-01-11T03:19:07.311Z,77.37
2023-01-11T03:21:47.821Z,77.54
2023-01-11T03:24:32.569Z,77.15
2023-01-11T03:27:10.186Z,77.21
2023-01-11T03:29:43.781Z,77.44
2023-01-11T03:32:22.318Z,77.12
2023-01-11T03:35:24.284Z,77.43
2023-01-11T03:37:50.844Z,77.39
2023-01-11T03:40:23.664Z,77.17
2023-01-11T03:43:11.499Z,77.33
2023-01-11T03:45:47.366Z,76.96
2023-01-11T03:48:19.733Z,76.94
2023-01-11T03:50:49.546Z,77.23
2023-01-11T03:53:17.675Z,77.09
2023-01-11T03:55:48.130Z,76.89
2023-01-11T03:58:14.665Z,77.05
2023-01-11T04:00:41.299Z,76.97
2023-01-11T04:03:09.683Z,77.02
2023-01-11T04:05:38.229Z,76.62
2023-01-11T04:08:04.983Z,76.67
2023-01-11T04:10:31.581Z,76.76
2023-01-11T04:12:57.941Z,76.91
2023-01-11T04:15:24.311Z,76.32
2023-01-11T04:17:50.895Z,76.40
2023-01-11T04:20:17.363Z,76.19
2023-01-11T04:22:43.801Z,76.50
2023-01-11T04:25:10.199Z,76.36
2023-01-11T04:27:36.647Z,76.42
2023-01-11T04:30:03.711Z,76.35
2023-01-11T04:32:30.088Z,76.13
2023-01-11T04:34:56.648Z,76.31
2023-01-11T04:37:23.127Z,76.04
2023-01-11T04:39:49.597Z,75.99
2023-01-11T04:42:18.596Z,75.76
2023-01-11T04:44:47.947Z,75.90
2023-01-11T04:47:16.144Z,75.62
2023-01-11T04:49:42.927Z,75.67
2023-01-11T04:52:14.265Z,75.63
2023-01-11T04:54:41.233Z,75.40
2023-01-11T04:57:11.835Z,75.30
2023-01-11T04:59:38.224Z,75.43
2023-01-11T05:02:04.814Z,75.24
2023-01-11T05:04:31.354Z,75.51
2023-01-11T05:06:57.777Z,74.88
2023-01-11T05:09:24.416Z,74.83
2023-01-11T05:11:50.795Z,75.22
2023-01-11T05:14:17.599Z,75.12
2023-01-11T05:16:44.076Z,75.17
2023-01-11T05:19:11.474Z,75.04
2023-01-11T05:21:40.068Z,75.15
2023-01-11T05:24:08.924Z,74.51
2023-01-11T05:26:37.374Z,74.83
2023-01-11T05:29:07.337Z,74.81
2023-01-11T05:31:36.893Z,74.97
2023-01-11T05:34:03.692Z,75.32
2023-01-11T05:36:30.131Z,75.32
2023-01-11T05:38:57.298Z,75.46
2023-01-11T05:41:26.214Z,75.31
2023-01-11T05:44:12.131Z,75.12
2023-01-11T05:46:40.006Z,74.92
2023-01-11T05:49:07.405Z,75.25
2023-01-11T05:51:34.472Z,75.71
2023-01-11T05:54:02.577Z,75.34
2023-01-11T05:56:29.198Z,75.52
2023-01-11T05:58:55.830Z,75.56
2023-01-11T06:01:23.420Z,75.76
2023-01-11T06:03:49.868Z,75.72
2023-01-11T06:06:17.770Z,75.84
2023-01-11T06:08:44.250Z,75.53
2023-01-11T06:11:10.669Z,75.38
2023-01-11T06:13:37.111Z,75.43
2023-01-11T06:16:03.422Z,75.37
2023-01-11T06:18:35.164Z,75.37
2023-01-11T06:21:02.059Z,75.60
2023-01-11T06:23:31.095Z,75.36
2023-01-11T06:26:01.386Z,75.35
2023-01-11T06:28:27.911Z,75.31
2023-01-11T06:30:58.960Z,75.33
2023-01-11T06:33:26.863Z,75.24
2023-01-11T06:35:53.921Z,75.30
2023-01-11T06:38:22.705Z,75.21
2023-01-11T06:41:00.513Z,75.31
2023-01-11T06:43:27.947Z,74.92
2023-01-11T06:45:54.384Z,75.41
2023-01-11T06:48:22.083Z,75.38
2023-01-11T06:50:50.316Z,75.68
2023-01-11T06:53:16.806Z,75.42
2023-01-11T06:55:43.572Z,75.56
2023-01-11T06:58:10.196Z,75.64
2023-01-11T07:00:36.680Z,75.15
2023-01-11T07:03:04.815Z,75.38
2023-01-11T07:05:35.436Z,75.31
2023-01-11T07:08:02.995Z,75.38
2023-01-11T07:10:29.485Z,76.00
2023-01-11T07:12:55.833Z,75.50
2023-01-11T07:15:22.424Z,74.90
2023-01-11T07:17:54.170Z,75.36
2023-01-11T07:20:20.557Z,75.27
2023-01-11T07:22:47.116Z,75.29
2023-01-11T07:25:13.517Z,75.28
2023-01-11T07:27:39.999Z,75.02
2023-01-11T07:30:08.473Z,75.04
2023-01-11T07:32:36.055Z,74.67
2023-01-11T07:35:02.457Z,74.74
2023-01-11T07:37:32.586Z,74.99
2023-01-11T07:39:59.101Z,74.84
2023-01-11T07:42:43.831Z,75.24
2023-01-11T07:45:10.850Z,74.80
2023-01-11T07:47:37.363Z,74.84
2023-01-11T07:50:04.061Z,75.08
2023-01-11T07:52:30.541Z,75.37
2023-01-11T07:55:02.191Z,75.40
2023-01-11T07:57:31.410Z,75.46
2023-01-11T07:59:58.326Z,75.24
2023-01-11T08:02:24.847Z,75.28
2023-01-11T08:04:51.360Z,75.82
2023-01-11T08:07:17.795Z,75.59
2023-01-11T08:09:44.381Z,75.04
2023-01-11T08:12:29.166Z,74.61
2023-01-11T08:14:55.849Z,74.32
2023-01-11T08:17:22.287Z,74.18
2023-01-11T08:19:48.658Z,74.40
2023-01-11T08:22:15.077Z,74.40
2023-01-11T08:24:41.445Z,74.15
2023-01-11T08:27:08.088Z,74.57
2023-01-11T08:29:34.642Z,74.42
2023-01-11T08:32:01.249Z,74.93
2023-01-11T08:34:29.045Z,75.50
2023-01-11T08:37:01.907Z,74.37
2023-01-11T08:39:30.996Z,74.29
2023-01-11T08:42:00.775Z,74.14
2023-01-11T08:44:35.005Z,74.35
2023-01-11T08:47:02.498Z,74.41
2023-01-11T08:49:30.364Z,74.69
2023-01-11T08:51:56.842Z,74.18
2023-01-11T08:54:23.255Z,74.14
2023-01-11T08:56:49.592Z,73.70
2023-01-11T08:59:15.998Z,74.05
2023-01-11T09:01:42.544Z,73.91
2023-01-11T09:04:19.324Z,73.95
2023-01-11T09:06:50.008Z,74.27
2023-01-11T09:09:16.888Z,74.43
2023-01-11T09:11:56.474Z,74.35
2023-01-11T09:14:24.820Z,74.76
2023-01-11T09:16:52.513Z,74.01
2023-01-11T09:19:18.921Z,74.04
2023-01-11T09:21:46.392Z,74.48
2023-01-11T09:24:13.884Z,74.47
2023-01-11T09:26:42.196Z,74.36
2023-01-11T09:29:09.212Z,74.35
2023-01-11T09:31:35.786Z,74.67
2023-01-11T09:34:02.203Z,74.31
2023-01-11T09:36:30.834Z,74.33
2023-01-11T09:39:00.302Z,73.96
2023-01-11T09:41:40.647Z,74.32
2023-01-11T09:44:16.296Z,74.42
2023-01-11T09:46:48.202Z,74.32
2023-01-11T09:49:29.563Z,74.35
2023-01-11T09:52:18.206Z,74.42
2023-01-11T09:54:45.455Z,74.54
2023-01-11T09:57:38.230Z,74.06
2023-01-11T10:00:31.394Z,74.48
2023-01-11T10:03:43.180Z,73.88
2023-01-11T10:06:24.217Z,73.81
2023-01-11T10:18:27.583Z,74.14
2023-01-11T10:18:34.389Z,74.00
2023-01-11T10:21:07.246Z,74.06
2023-01-11T10:23:56.034Z,74.15
2023-01-11T10:26:29.008Z,74.24
2023-01-11T10:29:39.556Z,73.68
2023-01-11T10:32:34.586Z,74.07
2023-01-11T10:35:25.917Z,73.93
2023-01-11T10:38:16.993Z,73.71
2023-01-11T10:41:06.729Z,73.83
2023-01-11T10:43:40.395Z,73.44
2023-01-11T10:46:26.193Z,73.71
2023-01-11T10:49:15.598Z,73.21
2023-01-11T10:51:45.555Z,73.01
2023-01-11T10:54:23.413Z,73.33
2023-01-11T10:57:03.017Z,73.37
2023-01-11T10:59:46.824Z,73.08
2023-01-11T11:02:24.806Z,72.96
2023-01-11T11:05:14.443Z,72.85
2023-01-11T11:07:50.836Z,72.98
2023-01-11T11:10:37.719Z,73.09
2023-01-11T11:13:17.310Z,72.72
2023-01-11T11:15:47.106Z,72.94
2023-01-11T11:18:13.546Z,72.79
2023-01-11T11:20:40.684Z,72.79
2023-01-11T11:23:07.125Z,72.17
2023-01-11T11:25:41.432Z,72.48
2023-01-11T11:28:15.547Z,72.41
2023-01-11T11:30:45.333Z,72.61
2023-01-11T11:33:22.274Z,72.59
2023-01-11T11:36:04.553Z,72.67
2023-01-11T11:38:45.030Z,72.72
2023-01-11T11:41:13.739Z,72.89
2023-01-11T11:43:45.912Z,72.57
2023-01-11T11:46:19.313Z,72.75
2023-01-11T11:49:08.621Z,72.93
2023-01-11T11:51:35.358Z,72.90
2023-01-11T11:54:02.036Z,73.13
2023-01-11T11:56:37.857Z,72.75
2023-01-11T11:59:09.212Z,73.07
2023-01-11T12:01:39.517Z,72.87
2023-01-11T12:04:18.661Z,72.78
2023-01-11T12:07:05.733Z,73.01
2023-01-11T12:09:34.764Z,72.74
2023-01-11T12:12:02.531Z,73.37
2023-01-11T12:14:32.375Z,73.34
2023-01-11T12:16:59.264Z,73.22
2023-01-11T12:19:41.358Z,73.63
2023-01-11T12:22:28.985Z,73.28
2023-01-11T12:25:19.198Z,73.88
2023-01-11T12:28:28.296Z,73.90
2023-01-11T12:31:31.254Z,73.89
2023-01-11T12:34:17.279Z,73.12
2023-01-11T12:37:02.346Z,73.01
2023-01-11T12:39:53.462Z,73.53
2023-01-11T12:42:28.947Z,72.78
2023-01-11T12:45:06.735Z,72.96
2023-01-11T12:48:23.365Z,73.18
2023-01-11T12:51:13.855Z,73.33
2023-01-11T12:53:49.406Z,73.64
2023-01-11T12:56:31.868Z,73.25
2023-01-11T12:59:36.694Z,73.45
2023-01-11T13:02:23.703Z,73.03
2023-01-11T13:05:12.972Z,73.57
2023-01-11T13:07:51.773Z,73.76
2023-01-11T13:10:31.924Z,74.00
2023-01-11T13:13:55.220Z,73.72
2023-01-11T13:16:31.329Z,73.98
2023-01-11T13:19:08.632Z,73.92
2023-01-11T13:21:44.428Z,73.47
2023-01-11T13:24:13.347Z,74.16
2023-01-11T13:26:44.089Z,74.08
2023-01-11T13:29:24.181Z,74.54
2023-01-11T13:31:52.829Z,74.89
2023-01-11T13:34:23.116Z,75.46
2023-01-11T13:36:55.661Z,75.61
2023-01-11T13:39:32.237Z,75.66
2023-01-11T13:42:04.585Z,75.81
2023-01-11T13:44:37.347Z,76.00
2023-01-11T13:47:13.179Z,76.64
2023-01-11T13:49:45.405Z,76.47
2023-01-11T13:52:15.043Z,76.88
2023-01-11T13:54:49.750Z,76.11
2023-01-11T13:57:27.113Z,76.25
2023-01-11T14:00:01.489Z,76.93
2023-01-11T14:02:47.563Z,76.59
2023-01-11T14:05:21.250Z,77.30
2023-01-11T14:08:11.719Z,77.51
2023-01-11T14:11:00.535Z,77.89
2023-01-11T14:14:00.909Z,78.10
2023-01-11T14:16:51.247Z,78.09
2023-01-11T14:19:39.212Z,78.77
2023-01-11T14:22:17.683Z,78.91
2023-01-11T14:24:53.918Z,78.76
2023-01-11T14:27:28.581Z,78.86
2023-01-11T14:30:05.068Z,79.08
2023-01-11T14:33:02.290Z,79.05
2023-01-11T14:35:52.547Z,79.52
2023-01-11T14:38:21.856Z,79.58
2023-01-11T14:41:19.251Z,80.22
2023-01-11T14:44:10.979Z,80.09
2023-01-11T14:46:51.069Z,80.34
2023-01-11T14:49:41.955Z,80.76
2023-01-11T14:52:16.237Z,80.68
2023-01-11T14:54:47.193Z,80.78
2023-01-11T14:57:40.559Z,80.87
2023-01-11T15:00:18.859Z,81.06
2023-01-11T15:02:51.331Z,81.14
2023-01-11T15:05:29.531Z,81.90
2023-01-11T15:08:13.058Z,82.12
2023-01-11T15:10:47.168Z,82.04
2023-01-11T15:13:18.613Z,82.20
2023-01-11T15:16:04.336Z,82.31
2023-01-11T15:18:31.450Z,82.98
2023-01-11T15:21:03.727Z,83.35
2023-01-11T15:23:45.883Z,83.21
2023-01-11T15:26:15.376Z,83.24
2023-01-11T15:28:51.709Z,83.36
2023-01-11T15:31:39.090Z,83.89
2023-01-11T15:34:21.989Z,83.64
2023-01-11T15:37:02.401Z,83.62
2023-01-11T15:39:52.173Z,84.38
2023-01-11T15:42:37.225Z,84.35
2023-01-11T15:45:15.939Z,84.97
2023-01-11T15:47:51.265Z,84.86
2023-01-11T15:50:43.570Z,85.04
2023-01-11T15:53:53.164Z,85.29
2023-01-11T15:56:22.794Z,85.57
2023-01-11T15:59:19.921Z,85.32
2023-01-11T16:02:15.643Z,85.90
2023-01-11T16:04:51.519Z,85.65
2023-01-11T16:07:55.105Z,85.65
2023-01-11T16:10:44.926Z,85.92
2023-01-11T16:13:34.019Z,86.08
2023-01-11T16:16:16.128Z,85.94
2023-01-11T16:18:55.772Z,85.59
2023-01-11T16:21:37.514Z,86.13
2023-01-11T16:24:09.486Z,85.96
2023-01-11T16:26:37.393Z,86.19
2023-01-11T16:29:11.385Z,86.54
2023-01-11T16:31:59.194Z,86.13
2023-01-11T16:34:28.773Z,86.26
2023-01-11T16:36:55.913Z,86.02
2023-01-11T16:39:25.960Z,86.38
2023-01-11T16:42:06.005Z,86.25
2023-01-11T16:44:51.432Z,85.68
2023-01-11T16:47:19.883Z,86.18
2023-01-11T16:49:49.368Z,86.12
2023-01-11T16:52:28.049Z,85.84
2023-01-11T16:54:57.115Z,85.52
2023-01-11T16:57:40.387Z,85.47
2023-01-11T17:00:19.727Z,86.21
2023-01-11T17:02:48.861Z,86.12
2023-01-11T17:05:24.345Z,86.18
2023-01-11T17:07:50.816Z,86.06
2023-01-11T17:10:20.167Z,85.46
2023-01-11T17:12:52.032Z,85.18
2023-01-11T17:15:24.414Z,85.46
2023-01-11T17:17:50.956Z,85.88
2023-01-11T17:20:21.834Z,85.40
2023-01-11T17:22:56.820Z,84.95
2023-01-11T17:25:29.552Z,85.30
2023-01-11T17:28:04.265Z,85.87
2023-01-11T17:30:32.454Z,86.10
2023-01-11T17:32:59.549Z,86.49
2023-01-11T17:35:36.616Z,86.30
2023-01-11T17:38:05.932Z,86.58
2023-01-11T17:40:36.690Z,86.78
2023-01-11T17:43:42.857Z,85.86
2023-01-11T17:46:16.874Z,85.79
2023-01-11T17:48:55.524Z,86.23
2023-01-11T17:51:27.448Z,86.12
2023-01-11T17:53:54.072Z,85.83
2023-01-11T17:56:32.620Z,86.33
2023-01-11T17:59:18.665Z,86.57
2023-01-11T18:01:50.513Z,86.48
2023-01-11T18:04:20.608Z,86.09
2023-01-11T18:06:48.661Z,86.46
2023-01-11T18:09:32.652Z,86.26
2023-01-11T18:12:18.251Z,86.05
2023-01-11T18:14:59.704Z,86.13
2023-01-11T18:17:32.261Z,86.28
2023-01-11T18:20:00.097Z,85.81
2023-01-11T18:22:43.927Z,85.84
2023-01-11T18:25:21.780Z,85.89
2023-01-11T18:27:48.955Z,85.88
2023-01-11T18:30:30.805Z,86.09
2023-01-11T18:32:58.160Z,85.87
2023-01-11T18:35:24.967Z,85.80
2023-01-11T18:37:51.990Z,85.84
2023-01-11T18:40:19.455Z,85.74
2023-01-11T18:42:47.437Z,85.79
2023-01-11T18:45:14.449Z,86.26
2023-01-11T18:47:40.905Z,86.62
2023-01-11T18:50:09.859Z,85.97
2023-01-11T18:52:37.092Z,85.51
2023-01-11T18:55:14.185Z,85.40
2023-01-11T18:57:41.694Z,85.84
2023-01-11T19:00:08.868Z,85.96
2023-01-11T19:02:44.431Z,85.15
2023-01-11T19:05:13.239Z,85.60
2023-01-11T19:07:39.636Z,85.96
2023-01-11T19:10:06.514Z,85.66
2023-01-11T19:12:32.981Z,85.21
2023-01-11T19:14:59.375Z,85.00
2023-01-11T19:17:28.762Z,84.95
2023-01-11T19:19:55.157Z,83.96
2023-01-11T19:22:24.565Z,83.75
2023-01-11T19:24:53.290Z,83.12
2023-01-11T19:27:19.643Z,83.26
2023-01-11T19:29:46.009Z,83.11
2023-01-11T19:32:12.384Z,83.82
2023-01-11T19:34:39.804Z,83.59
2023-01-11T19:37:06.315Z,82.79
2023-01-11T19:39:32.681Z,83.67
2023-01-11T19:42:01.423Z,83.26
2023-01-11T19:44:35.959Z,83.20
2023-01-11T19:47:12.025Z,83.16
2023-01-11T19:49:40.280Z,83.23
2023-01-11T19:52:13.218Z,82.60
2023-01-11T19:54:42.622Z,82.63
2023-01-11T19:57:14.818Z,82.99
2023-01-11T19:59:41.546Z,82.75
2023-01-11T20:02:09.715Z,83.00
2023-01-11T20:04:37.085Z,82.45
2023-01-11T20:07:04.858Z,82.24
2023-01-11T20:09:31.321Z,82.00
2023-01-11T20:11:58.780Z,81.83
2023-01-11T20:14:25.716Z,82.07
2023-01-11T20:16:52.100Z,81.71
2023-01-11T20:19:18.521Z,81.50
2023-01-11T20:21:44.905Z,81.88
2023-01-11T20:24:13.220Z,80.80
2023-01-11T20:26:40.558Z,81.22
2023-01-11T20:29:07.413Z,81.40
2023-01-11T20:31:35.483Z,81.13
2023-01-11T20:34:07.316Z,81.10
2023-01-11T20:36:33.680Z,81.34
2023-01-11T20:39:00.273Z,81.39
2023-01-11T20:41:46.496Z,81.48
2023-01-11T20:44:24.383Z,81.39
2023-01-11T20:46:52.117Z,80.98
2023-01-11T20:49:21.175Z,81.22
2023-01-11T20:51:47.580Z,80.80
2023-01-11T20:54:14.237Z,81.40
2023-01-11T20:56:41.632Z,81.30
2023-01-11T20:59:09.310Z,81.78
2023-01-11T21:01:37.139Z,81.30
2023-01-11T21:04:08.894Z,81.44
2023-01-11T21:06:39.151Z,81.61
2023-01-11T21:09:07.172Z,81.50
2023-01-11T21:11:34.378Z,81.53
2023-01-11T21:14:04.179Z,81.44
2023-01-11T21:16:31.434Z,80.87
2023-01-11T21:19:00.536Z,80.99
2023-01-11T21:21:28.110Z,80.78
2023-01-11T21:23:57.728Z,80.39
2023-01-11T21:26:24.729Z,80.32
2023-01-11T21:28:53.932Z,80.08
2023-01-11T21:31:23.225Z,79.52
2023-01-11T21:33:50.186Z,79.67
2023-01-11T21:36:21.887Z,78.52
2023-01-11T21:38:57.026Z,78.49
2023-01-11T21:41:45.446Z,78.25
2023-01-11T21:44:12.841Z,79.08
2023-01-11T21:46:40.313Z,78.05
2023-01-11T21:49:07.247Z,77.82
2023-01-11T21:51:34.452Z,77.80
2023-01-11T21:54:07.803Z,77.37
2023-01-11T21:56:34.886Z,77.37
2023-01-11T21:59:01.384Z,76.76
2023-01-11T22:01:28.136Z,76.50
2023-01-11T22:03:54.603Z,76.73
2023-01-11T22:06:21.012Z,76.35
2023-01-11T22:08:47.605Z,76.42
2023-01-11T22:11:16.221Z,76.38
2023-01-11T22:13:43.075Z,76.70
2023-01-11T22:16:12.858Z,76.39
2023-01-11T22:18:41.001Z,75.97
2023-01-11T22:21:20.471Z,75.89
2023-01-11T22:23:48.074Z,75.67
2023-01-11T22:26:17.080Z,75.93
2023-01-11T22:29:03.389Z,76.08
2023-01-11T22:31:30.949Z,75.73
2023-01-11T22:33:58.052Z,76.49
2023-01-11T22:36:25.629Z,75.47
2023-01-11T22:38:52.636Z,76.01
2023-01-11T22:41:19.758Z,76.19
2023-01-11T22:43:46.815Z,76.13
2023-01-11T22:46:15.922Z,76.32
2023-01-11T22:48:43.465Z,76.49
2023-01-11T22:51:11.055Z,76.52
2023-01-11T22:53:40.764Z,75.73
2023-01-11T22:56:08.830Z,76.26
2023-01-11T22:58:36.054Z,76.48
2023-01-11T23:01:14.080Z,76.88
2023-01-11T23:03:41.641Z,77.05
2023-01-11T23:06:09.579Z,76.39
2023-01-11T23:08:37.625Z,77.05
2023-01-11T23:11:04.069Z,76.32
2023-01-11T23:13:48.983Z,76.98
2023-01-11T23:16:15.434Z,77.20
2023-01-11T23:18:41.855Z,76.74
2023-01-11T23:21:08.295Z,76.75
2023-01-11T23:23:34.752Z,76.50
2023-01-11T23:26:01.147Z,76.43
2023-01-11T23:28:29.778Z,76.82
2023-01-11T23:30:56.158Z,76.70
2023-01-11T23:33:22.503Z,76.80
2023-01-11T23:35:59.034Z,77.13
2023-01-11T23:38:25.716Z,76.95
2023-01-11T23:41:10.588Z,76.64
2023-01-11T23:43:40.616Z,77.04
2023-01-11T23:46:25.687Z,76.45
2023-01-11T23:48:52.043Z,77.08
2023-01-11T23:51:18.410Z,76.67
2023-01-11T23:53:44.884Z,76.58
2023-01-11T23:56:11.270Z,76.68
2023-01-11T23:58:37.625Z,76.51
